Página principal
METAR-TAF:

METAR-TAF

Aeroportos :

Guilin, China

Aeroporto Internacional de Guilin Liangjiang

latitude: 25-20N, longitude: 110-18E, altura: 166 m

Observação actual do tempo

O boletim foi feito há 28 minutos, às 17:00 UTC
Vento calmo
Temperatura 24°C
Humidade 100%
Pressão 1009 hPa
Visibilidade: 3500 m
Nuvens fragmentadasa uma altura de 2600 ft
Encobertoa uma altura de 4300 ft
neblina

METAR: ZGKL 281700Z 00000MPS 3500 BR BKN026 OVC043 24/24 Q1009 NOSIG

Hora: 01:28 (17:28 UTC)

Previsão

O boletim foi feito há 8 horas e 23 minutos, às 09:05 UTC
Previsão válida de 28 às 12 UTC a 29 às 12 UTC
Vento 2 kt com direcção variável
Visibilidade: 5000 m
Poucas nuvensa uma altura de 600 ft
Nuvens dispersasa uma altura de 2000 ft
Encobertoa uma altura de 4000 ft
chuva fraca, neblina
Temporariamente
de 28 às 14 UTC a 28 às 18 UTC
Visibilidade: 2000 m
chuva, neblina

TAF: ZGKL 280905Z 2812/2912 VRB01MPS 5000 -RA BR FEW006 SCT020 OVC040 TX25/2908Z TN21/2823Z TEMPO 2814/2818 2000 RA BR

Observações e previsões do tempo de mais de 4000 aeroportos (mensagens METAR e TAF).

As estações disponíveis são os pontos amarelos e vermelhos sobre o mapa.

Mova o rato sobre o mapa para ver o nome da estação.

Depois clique no ponto para visualizar as observações e previsões meteorológicas.

Para alterar o mapa : clique nos botões verdes com uma cruz preta para aumentar o zoom; no botão verde com uma pitada de zoom; ou nas setas verdes para mapas adjacentes.


METAR-TAF: